sensor_id;sensor_type;location;lat;lon;timestamp;pressure;altitude;pressure_sealevel;temperature;humidity
47636;BME280;33364;50.766;15.338;2024-01-15T00:00:42;93131.59;;;-1.91;92.68
47636;BME280;33364;50.766;15.338;2024-01-15T00:03:27;93134.19;;;-1.86;93.44
47636;BME280;33364;50.766;15.338;2024-01-15T00:05:53;93130.84;;;-1.87;92.81
47636;BME280;33364;50.766;15.338;2024-01-15T00:08:19;93117.38;;;-1.84;93.10
47636;BME280;33364;50.766;15.338;2024-01-15T00:10:45;93115.00;;;-1.95;92.51
47636;BME280;33364;50.766;15.338;2024-01-15T00:13:11;93104.41;;;-1.99;92.45
47636;BME280;33364;50.766;15.338;2024-01-15T00:15:37;93099.97;;;-2.08;92.02
47636;BME280;33364;50.766;15.338;2024-01-15T00:18:02;93110.56;;;-2.05;92.53
47636;BME280;33364;50.766;15.338;2024-01-15T00:20:28;93105.44;;;-1.95;92.69
47636;BME280;33364;50.766;15.338;2024-01-15T00:22:54;93093.59;;;-1.86;93.01
47636;BME280;33364;50.766;15.338;2024-01-15T00:25:20;93081.69;;;-1.87;92.81
47636;BME280;33364;50.766;15.338;2024-01-15T00:27:45;93086.28;;;-1.99;92.73
47636;BME280;33364;50.766;15.338;2024-01-15T00:30:12;93077.53;;;-1.88;93.09
47636;BME280;33364;50.766;15.338;2024-01-15T00:32:37;93075.41;;;-2.01;93.28
47636;BME280;33364;50.766;15.338;2024-01-15T00:35:04;93071.50;;;-2.14;92.80
47636;BME280;33364;50.766;15.338;2024-01-15T00:37:29;93068.41;;;-2.10;93.02
47636;BME280;33364;50.766;15.338;2024-01-15T00:39:55;93063.53;;;-2.07;93.33
47636;BME280;33364;50.766;15.338;2024-01-15T00:42:21;93057.56;;;-2.13;93.15
47636;BME280;33364;50.766;15.338;2024-01-15T00:44:47;93070.19;;;-2.21;92.82
47636;BME280;33364;50.766;15.338;2024-01-15T00:47:12;93065.34;;;-2.07;93.31
47636;BME280;33364;50.766;15.338;2024-01-15T00:49:38;93065.31;;;-2.18;92.19
47636;BME280;33364;50.766;15.338;2024-01-15T00:52:04;93067.66;;;-2.01;92.71
47636;BME280;33364;50.766;15.338;2024-01-15T00:54:30;93050.81;;;-2.14;92.58
47636;BME280;33364;50.766;15.338;2024-01-15T00:56:56;93058.59;;;-2.08;93.43
47636;BME280;33364;50.766;15.338;2024-01-15T00:59:22;93050.06;;;-2.04;93.22
47636;BME280;33364;50.766;15.338;2024-01-15T01:01:47;93054.25;;;-1.98;93.68
47636;BME280;33364;50.766;15.338;2024-01-15T01:04:14;93058.81;;;-2.20;93.30
47636;BME280;33364;50.766;15.338;2024-01-15T01:06:39;93049.50;;;-2.21;92.96
47636;BME280;33364;50.766;15.338;2024-01-15T01:09:05;93049.47;;;-2.31;92.74
47636;BME280;33364;50.766;15.338;2024-01-15T01:11:31;93047.91;;;-2.27;93.17
47636;BME280;33364;50.766;15.338;2024-01-15T01:13:57;93057.19;;;-2.36;93.24
47636;BME280;33364;50.766;15.338;2024-01-15T01:16:23;93048.19;;;-2.29;92.51
47636;BME280;33364;50.766;15.338;2024-01-15T01:18:49;93039.88;;;-2.36;92.74
47636;BME280;33364;50.766;15.338;2024-01-15T01:21:15;93035.31;;;-2.19;93.73
47636;BME280;33364;50.766;15.338;2024-01-15T01:23:41;93026.72;;;-2.34;93.46
47636;BME280;33364;50.766;15.338;2024-01-15T01:26:06;93022.88;;;-2.22;93.10
47636;BME280;33364;50.766;15.338;2024-01-15T01:28:32;93023.16;;;-2.23;93.47
47636;BME280;33364;50.766;15.338;2024-01-15T01:30:58;93018.25;;;-2.15;93.35
47636;BME280;33364;50.766;15.338;2024-01-15T01:33:24;93023.09;;;-2.38;92.89
47636;BME280;33364;50.766;15.338;2024-01-15T01:35:49;93026.22;;;-2.21;93.26
47636;BME280;33364;50.766;15.338;2024-01-15T01:38:15;93026.78;;;-2.19;93.26
47636;BME280;33364;50.766;15.338;2024-01-15T01:40:41;93010.50;;;-2.09;92.70
47636;BME280;33364;50.766;15.338;2024-01-15T01:43:09;93016.22;;;-2.02;92.89
47636;BME280;33364;50.766;15.338;2024-01-15T01:45:34;93008.94;;;-2.10;91.88
47636;BME280;33364;50.766;15.338;2024-01-15T01:48:02;93018.25;;;-2.15;92.51
47636;BME280;33364;50.766;15.338;2024-01-15T01:50:29;93015.09;;;-2.32;92.32
47636;BME280;33364;50.766;15.338;2024-01-15T01:52:57;93015.88;;;-2.21;92.53
47636;BME280;33364;50.766;15.338;2024-01-15T01:55:24;93016.94;;;-2.22;92.96
47636;BME280;33364;50.766;15.338;2024-01-15T01:57:51;93012.25;;;-2.25;92.47
47636;BME280;33364;50.766;15.338;2024-01-15T02:00:17;93011.22;;;-2.34;92.32
47636;BME280;33364;50.766;15.338;2024-01-15T02:02:43;93005.03;;;-2.28;93.35
47636;BME280;33364;50.766;15.338;2024-01-15T02:05:09;92999.09;;;-2.24;93.34
47636;BME280;33364;50.766;15.338;2024-01-15T02:07:35;92989.16;;;-2.52;93.51
47636;BME280;33364;50.766;15.338;2024-01-15T02:10:02;92982.72;;;-2.54;93.24
47636;BME280;33364;50.766;15.338;2024-01-15T02:12:28;92984.81;;;-2.41;93.67
47636;BME280;33364;50.766;15.338;2024-01-15T02:14:53;92991.81;;;-2.37;93.04
47636;BME280;33364;50.766;15.338;2024-01-15T02:17:19;92987.69;;;-2.33;93.98
47636;BME280;33364;50.766;15.338;2024-01-15T02:19:45;92972.19;;;-2.33;93.78
47636;BME280;33364;50.766;15.338;2024-01-15T02:22:11;92978.66;;;-2.30;93.33
47636;BME280;33364;50.766;15.338;2024-01-15T02:24:36;92976.34;;;-2.22;93.57
47636;BME280;33364;50.766;15.338;2024-01-15T02:27:02;92973.97;;;-2.43;93.69
47636;BME280;33364;50.766;15.338;2024-01-15T02:29:28;92969.84;;;-2.44;93.59
47636;BME280;33364;50.766;15.338;2024-01-15T02:31:54;92968.56;;;-2.32;93.89
47636;BME280;33364;50.766;15.338;2024-01-15T02:34:20;92966.25;;;-2.28;93.06
47636;BME280;33364;50.766;15.338;2024-01-15T02:36:46;92970.66;;;-2.29;92.78
47636;BME280;33364;50.766;15.338;2024-01-15T02:39:12;92969.06;;;-2.40;92.17
47636;BME280;33364;50.766;15.338;2024-01-15T02:41:37;92967.50;;;-2.41;91.65
47636;BME280;33364;50.766;15.338;2024-01-15T02:44:03;92961.31;;;-2.35;91.48
47636;BME280;33364;50.766;15.338;2024-01-15T02:46:29;92952.03;;;-2.31;92.46
47636;BME280;33364;50.766;15.338;2024-01-15T02:48:55;92957.94;;;-2.45;91.71
47636;BME280;33364;50.766;15.338;2024-01-15T02:51:21;92951.75;;;-2.44;92.17
47636;BME280;33364;50.766;15.338;2024-01-15T02:53:46;92951.25;;;-2.31;93.17
47636;BME280;33364;50.766;15.338;2024-01-15T02:56:12;92949.91;;;-2.59;93.23
47636;BME280;33364;50.766;15.338;2024-01-15T02:58:38;92940.38;;;-2.43;93.05
47636;BME280;33364;50.766;15.338;2024-01-15T03:01:04;92947.31;;;-2.54;92.93
47636;BME280;33364;50.766;15.338;2024-01-15T03:03:30;92948.84;;;-2.58;93.58
47636;BME280;33364;50.766;15.338;2024-01-15T03:05:56;92937.03;;;-2.34;94.35
47636;BME280;33364;50.766;15.338;2024-01-15T03:08:21;92947.09;;;-2.37;93.66
47636;BME280;33364;50.766;15.338;2024-01-15T03:10:48;92949.19;;;-2.34;93.77
47636;BME280;33364;50.766;15.338;2024-01-15T03:13:13;92934.97;;;-2.32;93.36
47636;BME280;33364;50.766;15.338;2024-01-15T03:15:39;92941.19;;;-2.33;92.96
47636;BME280;33364;50.766;15.338;2024-01-15T03:18:05;92935.97;;;-2.38;93.03
47636;BME280;33364;50.766;15.338;2024-01-15T03:20:32;92932.91;;;-2.30;93.32
47636;BME280;33364;50.766;15.338;2024-01-15T03:22:57;92926.44;;;-2.32;94.01
47636;BME280;33364;50.766;15.338;2024-01-15T03:25:23;92924.88;;;-2.43;93.79
47636;BME280;33364;50.766;15.338;2024-01-15T03:27:49;92921.50;;;-2.44;93.45
47636;BME280;33364;50.766;15.338;2024-01-15T03:30:15;92931.88;;;-2.34;94.07
47636;BME280;33364;50.766;15.338;2024-01-15T03:32:40;92939.78;;;-2.66;93.44
47636;BME280;33364;50.766;15.338;2024-01-15T03:35:06;92950.41;;;-2.57;93.66
47636;BME280;33364;50.766;15.338;2024-01-15T03:37:32;92941.88;;;-2.52;94.13
47636;BME280;33364;50.766;15.338;2024-01-15T03:39:58;92934.66;;;-2.56;94.46
47636;BME280;33364;50.766;15.338;2024-01-15T03:42:24;92941.88;;;-2.58;94.59
47636;BME280;33364;50.766;15.338;2024-01-15T03:44:50;92943.69;;;-2.53;94.37
47636;BME280;33364;50.766;15.338;2024-01-15T03:47:15;92947.88;;;-2.32;94.74
47636;BME280;33364;50.766;15.338;2024-01-15T03:49:41;92941.41;;;-2.49;94.07
47636;BME280;33364;50.766;15.338;2024-01-15T03:52:07;92937.22;;;-2.66;93.06
47636;BME280;33364;50.766;15.338;2024-01-15T03:54:32;92933.88;;;-2.51;93.06
47636;BME280;33364;50.766;15.338;2024-01-15T03:56:58;92946.53;;;-2.54;93.05
47636;BME280;33364;50.766;15.338;2024-01-15T03:59:24;92941.84;;;-2.63;92.29
47636;BME280;33364;50.766;15.338;2024-01-15T04:01:50;92932.56;;;-2.53;93.15
47636;BME280;33364;50.766;15.338;2024-01-15T04:04:17;92920.94;;;-2.61;92.94
47636;BME280;33364;50.766;15.338;2024-01-15T04:06:43;92929.50;;;-2.56;93.32
47636;BME280;33364;50.766;15.338;2024-01-15T04:09:09;92915.81;;;-2.51;93.67
47636;BME280;33364;50.766;15.338;2024-01-15T04:11:35;92921.50;;;-2.54;93.86
47636;BME280;33364;50.766;15.338;2024-01-15T04:14:01;92918.91;;;-2.49;94.16
47636;BME280;33364;50.766;15.338;2024-01-15T04:16:26;92916.84;;;-2.47;94.31
47636;BME280;33364;50.766;15.338;2024-01-15T04:18:52;92916.03;;;-2.52;93.68
47636;BME280;33364;50.766;15.338;2024-01-15T04:21:18;92919.16;;;-2.50;93.75
47636;BME280;33364;50.766;15.338;2024-01-15T04:23:44;92917.59;;;-2.51;94.25
47636;BME280;33364;50.766;15.338;2024-01-15T04:26:10;92903.66;;;-2.50;94.29
47636;BME280;33364;50.766;15.338;2024-01-15T04:28:35;92903.69;;;-2.40;94.38
47636;BME280;33364;50.766;15.338;2024-01-15T04:31:01;92904.72;;;-2.36;94.85
47636;BME280;33364;50.766;15.338;2024-01-15T04:33:27;92905.50;;;-2.41;94.65
47636;BME280;33364;50.766;15.338;2024-01-15T04:35:52;92909.09;;;-2.47;93.85
47636;BME280;33364;50.766;15.338;2024-01-15T04:38:18;92912.97;;;-2.49;93.54
47636;BME280;33364;50.766;15.338;2024-01-15T04:40:44;92918.63;;;-2.52;93.68
47636;BME280;33364;50.766;15.338;2024-01-15T04:43:10;92911.19;;;-2.44;93.49
47636;BME280;33364;50.766;15.338;2024-01-15T04:45:36;92915.81;;;-2.51;92.96
47636;BME280;33364;50.766;15.338;2024-01-15T04:48:02;92919.19;;;-2.45;92.72
47636;BME280;33364;50.766;15.338;2024-01-15T04:50:28;92902.13;;;-2.46;92.65
47636;BME280;33364;50.766;15.338;2024-01-15T04:52:54;92897.72;;;-2.51;92.71
47636;BME280;33364;50.766;15.338;2024-01-15T04:55:20;92901.09;;;-2.40;93.27
47636;BME280;33364;50.766;15.338;2024-01-15T04:57:46;92902.13;;;-2.41;92.72
47636;BME280;33364;50.766;15.338;2024-01-15T05:00:12;92904.69;;;-2.51;93.21
47636;BME280;33364;50.766;15.338;2024-01-15T05:02:38;92898.50;;;-2.50;93.84
47636;BME280;33364;50.766;15.338;2024-01-15T05:05:04;92903.13;;;-2.52;93.93
47636;BME280;33364;50.766;15.338;2024-01-15T05:07:30;92905.19;;;-2.65;93.98
47636;BME280;33364;50.766;15.338;2024-01-15T05:09:56;92895.38;;;-2.47;94.72
47636;BME280;33364;50.766;15.338;2024-01-15T05:12:21;92905.22;;;-2.44;95.32
47636;BME280;33364;50.766;15.338;2024-01-15T05:14:47;92902.66;;;-2.29;95.01
47636;BME280;33364;50.766;15.338;2024-01-15T05:17:13;92898.75;;;-2.37;94.09
47636;BME280;33364;50.766;15.338;2024-01-15T05:19:39;92907.00;;;-2.65;93.13
47636;BME280;33364;50.766;15.338;2024-01-15T05:22:05;92901.53;;;-2.74;93.44
47636;BME280;33364;50.766;15.338;2024-01-15T05:24:31;92903.88;;;-2.62;93.63
47636;BME280;33364;50.766;15.338;2024-01-15T05:26:56;92909.84;;;-2.62;94.30
47636;BME280;33364;50.766;15.338;2024-01-15T05:29:22;92922.00;;;-2.47;94.52
47636;BME280;33364;50.766;15.338;2024-01-15T05:31:48;92915.19;;;-2.78;94.51
47636;BME280;33364;50.766;15.338;2024-01-15T05:34:14;92923.28;;;-2.60;94.40
47636;BME280;33364;50.766;15.338;2024-01-15T05:36:43;92926.91;;;-2.50;94.03
47636;BME280;33364;50.766;15.338;2024-01-15T05:39:09;92932.59;;;-2.48;93.92
47636;BME280;33364;50.766;15.338;2024-01-15T05:41:35;92927.91;;;-2.62;93.74
47636;BME280;33364;50.766;15.338;2024-01-15T05:44:00;92931.09;;;-2.34;94.36
47636;BME280;33364;50.766;15.338;2024-01-15T05:46:26;92926.88;;;-2.66;93.89
47636;BME280;33364;50.766;15.338;2024-01-15T05:48:52;92930.50;;;-2.57;93.46
47636;BME280;33364;50.766;15.338;2024-01-15T05:51:18;92930.47;;;-2.67;92.75
47636;BME280;33364;50.766;15.338;2024-01-15T05:53:43;92931.03;;;-2.60;92.77
47636;BME280;33364;50.766;15.338;2024-01-15T05:56:10;92930.50;;;-2.62;92.24
47636;BME280;33364;50.766;15.338;2024-01-15T05:58:36;92928.13;;;-2.78;92.68
47636;BME280;33364;50.766;15.338;2024-01-15T06:01:02;92936.97;;;-2.59;93.02
47636;BME280;33364;50.766;15.338;2024-01-15T06:03:28;92942.91;;;-2.53;92.79
47636;BME280;33364;50.766;15.338;2024-01-15T06:05:54;92939.31;;;-2.52;93.20
47636;BME280;33364;50.766;15.338;2024-01-15T06:08:19;92928.50;;;-2.39;93.22
47636;BME280;33364;50.766;15.338;2024-01-15T06:10:46;92937.03;;;-2.34;93.17
47636;BME280;33364;50.766;15.338;2024-01-15T06:13:12;92948.16;;;-2.33;92.75
47636;BME280;33364;50.766;15.338;2024-01-15T06:15:39;92944.50;;;-2.32;93.29
47636;BME280;33364;50.766;15.338;2024-01-15T06:18:05;92948.66;;;-2.26;92.92
47636;BME280;33364;50.766;15.338;2024-01-15T06:20:31;92946.06;;;-2.41;92.70
47636;BME280;33364;50.766;15.338;2024-01-15T06:22:56;92943.47;;;-2.36;92.79
47636;BME280;33364;50.766;15.338;2024-01-15T06:25:22;92947.03;;;-2.58;92.08
47636;BME280;33364;50.766;15.338;2024-01-15T06:27:48;92946.59;;;-2.39;92.56
47636;BME280;33364;50.766;15.338;2024-01-15T06:30:14;92943.72;;;-2.43;92.55
47636;BME280;33364;50.766;15.338;2024-01-15T06:32:40;92955.38;;;-2.35;92.69
47636;BME280;33364;50.766;15.338;2024-01-15T06:35:06;92962.06;;;-2.54;91.72
47636;BME280;33364;50.766;15.338;2024-01-15T06:37:32;92961.78;;;-2.48;92.50
47636;BME280;33364;50.766;15.338;2024-01-15T06:39:58;92955.16;;;-2.29;92.81
47636;BME280;33364;50.766;15.338;2024-01-15T06:42:24;92958.19;;;-2.47;91.96
47636;BME280;33364;50.766;15.338;2024-01-15T06:44:50;92965.19;;;-2.32;92.35
47636;BME280;33364;50.766;15.338;2024-01-15T06:47:16;92962.88;;;-2.34;91.08
47636;BME280;33364;50.766;15.338;2024-01-15T06:49:43;92955.38;;;-2.30;90.88
47636;BME280;33364;50.766;15.338;2024-01-15T06:52:08;92956.66;;;-2.38;90.86
47636;BME280;33364;50.766;15.338;2024-01-15T06:54:34;92955.38;;;-2.30;90.47
47636;BME280;33364;50.766;15.338;2024-01-15T06:57:00;92961.59;;;-2.31;90.78
47636;BME280;33364;50.766;15.338;2024-01-15T06:59:26;92958.47;;;-2.38;90.55
47636;BME280;33364;50.766;15.338;2024-01-15T07:01:52;92961.09;;;-2.33;90.67
47636;BME280;33364;50.766;15.338;2024-01-15T07:04:17;92951.00;;;-2.25;90.70
47636;BME280;33364;50.766;15.338;2024-01-15T07:06:43;92952.31;;;-2.22;90.22
47636;BME280;33364;50.766;15.338;2024-01-15T07:09:09;92951.22;;;-2.41;89.51
47636;BME280;33364;50.766;15.338;2024-01-15T07:11:36;92966.75;;;-2.31;89.81
47636;BME280;33364;50.766;15.338;2024-01-15T07:14:02;92963.63;;;-2.43;90.40
47636;BME280;33364;50.766;15.338;2024-01-15T07:16:27;92974.03;;;-2.23;91.00
47636;BME280;33364;50.766;15.338;2024-01-15T07:18:53;92976.84;;;-2.35;89.41
47636;BME280;33364;50.766;15.338;2024-01-15T07:21:20;92969.13;;;-2.20;90.15
47636;BME280;33364;50.766;15.338;2024-01-15T07:23:46;92980.41;;;-2.46;88.36
47636;BME280;33364;50.766;15.338;2024-01-15T07:26:11;92979.16;;;-2.33;89.17
47636;BME280;33364;50.766;15.338;2024-01-15T07:28:37;92979.38;;;-2.50;89.00
47636;BME280;33364;50.766;15.338;2024-01-15T07:31:04;92977.59;;;-2.44;89.60
47636;BME280;33364;50.766;15.338;2024-01-15T07:33:32;92984.03;;;-2.42;88.65
47636;BME280;33364;50.766;15.338;2024-01-15T07:35:57;92980.16;;;-2.44;88.62
47636;BME280;33364;50.766;15.338;2024-01-15T07:38:23;92989.97;;;-2.41;88.32
47636;BME280;33364;50.766;15.338;2024-01-15T07:40:49;92976.78;;;-2.55;88.71
47636;BME280;33364;50.766;15.338;2024-01-15T07:43:15;92980.59;;;-2.63;88.05
47636;BME280;33364;50.766;15.338;2024-01-15T07:45:41;92983.47;;;-2.59;88.40
47636;BME280;33364;50.766;15.338;2024-01-15T07:48:07;92985.78;;;-2.58;88.04
47636;BME280;33364;50.766;15.338;2024-01-15T07:50:32;92977.56;;;-2.54;87.08
47636;BME280;33364;50.766;15.338;2024-01-15T07:52:58;92978.84;;;-2.47;88.35
47636;BME280;33364;50.766;15.338;2024-01-15T07:55:24;92973.19;;;-2.49;89.08
47636;BME280;33364;50.766;15.338;2024-01-15T07:57:50;92982.72;;;-2.54;89.03
47636;BME280;33364;50.766;15.338;2024-01-15T08:00:17;92987.34;;;-2.57;88.55
47636;BME280;33364;50.766;15.338;2024-01-15T08:02:43;92980.16;;;-2.49;89.00
47636;BME280;33364;50.766;15.338;2024-01-15T08:05:08;92979.66;;;-2.41;89.51
47636;BME280;33364;50.766;15.338;2024-01-15T08:07:34;92987.63;;;-2.53;88.70
47636;BME280;33364;50.766;15.338;2024-01-15T08:10:00;92984.56;;;-2.40;88.47
47636;BME280;33364;50.766;15.338;2024-01-15T08:12:26;92983.78;;;-2.45;87.90
47636;BME280;33364;50.766;15.338;2024-01-15T08:14:52;92983.19;;;-2.63;88.06
47636;BME280;33364;50.766;15.338;2024-01-15T08:17:17;92991.47;;;-2.66;89.01
47636;BME280;33364;50.766;15.338;2024-01-15T08:19:43;92997.91;;;-2.63;88.51
47636;BME280;33364;50.766;15.338;2024-01-15T08:22:10;92978.56;;;-2.61;87.96
47636;BME280;33364;50.766;15.338;2024-01-15T08:24:36;92997.66;;;-2.67;88.93
47636;BME280;33364;50.766;15.338;2024-01-15T08:27:02;92991.94;;;-2.69;88.83
47636;BME280;33364;50.766;15.338;2024-01-15T08:29:30;93003.22;;;-2.85;88.74
47636;BME280;33364;50.766;15.338;2024-01-15T08:31:58;93003.00;;;-2.78;88.86
47636;BME280;33364;50.766;15.338;2024-01-15T08:34:24;93003.03;;;-2.73;89.00
47636;BME280;33364;50.766;15.338;2024-01-15T08:36:50;93003.28;;;-2.75;88.34
47636;BME280;33364;50.766;15.338;2024-01-15T08:39:16;92996.31;;;-2.74;88.05
47636;BME280;33364;50.766;15.338;2024-01-15T08:41:43;93006.41;;;-2.73;89.17
47636;BME280;33364;50.766;15.338;2024-01-15T08:44:09;92996.06;;;-2.73;88.84
47636;BME280;33364;50.766;15.338;2024-01-15T08:46:35;93005.91;;;-2.70;88.61
47636;BME280;33364;50.766;15.338;2024-01-15T08:49:00;93005.16;;;-2.65;88.41
47636;BME280;33364;50.766;15.338;2024-01-15T08:51:26;93003.53;;;-2.76;87.64
47636;BME280;33364;50.766;15.338;2024-01-15T08:53:52;93012.53;;;-2.84;87.56
47636;BME280;33364;50.766;15.338;2024-01-15T08:56:18;93016.69;;;-2.83;88.18
47636;BME280;33364;50.766;15.338;2024-01-15T08:58:44;93017.69;;;-2.84;89.04
47636;BME280;33364;50.766;15.338;2024-01-15T09:01:11;93015.69;;;-2.72;89.54
47636;BME280;33364;50.766;15.338;2024-01-15T09:03:37;93019.28;;;-2.78;89.63
47636;BME280;33364;50.766;15.338;2024-01-15T09:06:03;93029.66;;;-2.68;88.78
47636;BME280;33364;50.766;15.338;2024-01-15T09:08:29;93011.78;;;-2.79;89.23
47636;BME280;33364;50.766;15.338;2024-01-15T09:10:55;93021.91;;;-2.68;89.38
47636;BME280;33364;50.766;15.338;2024-01-15T09:13:20;93016.78;;;-2.58;88.56
47636;BME280;33364;50.766;15.338;2024-01-15T09:15:46;93015.00;;;-2.52;89.14
47636;BME280;33364;50.766;15.338;2024-01-15T09:18:12;93021.44;;;-2.65;88.78
47636;BME280;33364;50.766;15.338;2024-01-15T09:20:38;93014.81;;;-2.40;89.20
47636;BME280;33364;50.766;15.338;2024-01-15T09:23:04;93033.56;;;-2.65;88.05
47636;BME280;33364;50.766;15.338;2024-01-15T09:25:30;93029.75;;;-2.47;88.04
47636;BME280;33364;50.766;15.338;2024-01-15T09:27:55;93031.34;;;-2.41;88.35
47636;BME280;33364;50.766;15.338;2024-01-15T09:30:21;93032.09;;;-2.46;87.88
47636;BME280;33364;50.766;15.338;2024-01-15T09:32:47;93035.63;;;-2.67;87.77
47636;BME280;33364;50.766;15.338;2024-01-15T09:35:13;93018.59;;;-2.58;88.47
47636;BME280;33364;50.766;15.338;2024-01-15T09:37:39;93027.84;;;-2.72;87.39
47636;BME280;33364;50.766;15.338;2024-01-15T09:40:06;93030.22;;;-2.61;87.74
47636;BME280;33364;50.766;15.338;2024-01-15T09:42:34;93023.03;;;-2.48;87.90
47636;BME280;33364;50.766;15.338;2024-01-15T09:45:01;93037.34;;;-2.83;87.33
47636;BME280;33364;50.766;15.338;2024-01-15T09:47:29;93039.97;;;-2.73;88.37
47636;BME280;33364;50.766;15.338;2024-01-15T09:49:55;93030.91;;;-2.80;86.98
47636;BME280;33364;50.766;15.338;2024-01-15T09:52:24;93025.19;;;-2.87;87.25
47636;BME280;33364;50.766;15.338;2024-01-15T09:54:51;93028.34;;;-3.17;87.68
47636;BME280;33364;50.766;15.338;2024-01-15T09:57:17;93020.78;;;-2.87;88.02
47636;BME280;33364;50.766;15.338;2024-01-15T09:59:44;93017.44;;;-2.87;88.25
47636;BME280;33364;50.766;15.338;2024-01-15T10:02:13;93013.44;;;-3.05;87.72
47636;BME280;33364;50.766;15.338;2024-01-15T10:04:43;93011.72;;;-2.89;88.48
47636;BME280;33364;50.766;15.338;2024-01-15T10:07:15;93016.06;;;-3.00;87.86
47636;BME280;33364;50.766;15.338;2024-01-15T10:09:42;93006.50;;;-3.00;88.26
47636;BME280;33364;50.766;15.338;2024-01-15T10:12:08;93004.69;;;-3.04;87.33
47636;BME280;33364;50.766;15.338;2024-01-15T10:14:35;92995.34;;;-3.10;87.84
47636;BME280;33364;50.766;15.338;2024-01-15T10:17:00;93001.06;;;-3.08;88.01
47636;BME280;33364;50.766;15.338;2024-01-15T10:19:26;92996.44;;;-3.01;87.82
47636;BME280;33364;50.766;15.338;2024-01-15T10:21:52;92985.84;;;-3.00;87.14
47636;BME280;33364;50.766;15.338;2024-01-15T10:24:18;92985.41;;;-2.86;87.81
47636;BME280;33364;50.766;15.338;2024-01-15T10:26:44;92991.38;;;-2.81;87.63
47636;BME280;33364;50.766;15.338;2024-01-15T10:29:10;92986.44;;;-2.87;87.27
47636;BME280;33364;50.766;15.338;2024-01-15T10:31:37;92974.63;;;-2.68;87.39
47636;BME280;33364;50.766;15.338;2024-01-15T10:34:11;92981.91;;;-2.65;87.18
47636;BME280;33364;50.766;15.338;2024-01-15T10:36:41;92975.75;;;-2.54;87.44
47636;BME280;33364;50.766;15.338;2024-01-15T10:39:07;92976.78;;;-2.50;87.12
47636;BME280;33364;50.766;15.338;2024-01-15T10:41:33;92967.22;;;-2.54;86.43
47636;BME280;33364;50.766;15.338;2024-01-15T10:43:59;92966.69;;;-2.51;86.30
47636;BME280;33364;50.766;15.338;2024-01-15T10:46:25;92965.91;;;-2.52;87.26
47636;BME280;33364;50.766;15.338;2024-01-15T10:48:51;92960.75;;;-2.52;86.64
47636;BME280;33364;50.766;15.338;2024-01-15T10:51:18;92957.97;;;-2.30;88.20
47636;BME280;33364;50.766;15.338;2024-01-15T10:53:45;92955.31;;;-2.56;86.97
47636;BME280;33364;50.766;15.338;2024-01-15T10:56:12;92957.66;;;-2.59;85.51
47636;BME280;33364;50.766;15.338;2024-01-15T10:58:39;92955.28;;;-2.71;85.53
47636;BME280;33364;50.766;15.338;2024-01-15T11:01:06;92962.00;;;-2.70;85.18
47636;BME280;33364;50.766;15.338;2024-01-15T11:03:32;92963.09;;;-2.50;87.01
47636;BME280;33364;50.766;15.338;2024-01-15T11:05:59;92961.00;;;-2.48;86.22
47636;BME280;33364;50.766;15.338;2024-01-15T11:08:25;92966.94;;;-2.58;86.58
47636;BME280;33364;50.766;15.338;2024-01-15T11:10:52;92965.13;;;-2.52;86.73
47636;BME280;33364;50.766;15.338;2024-01-15T11:13:22;92970.59;;;-2.49;86.17
47636;BME280;33364;50.766;15.338;2024-01-15T11:16:08;92967.75;;;-2.47;85.29
47636;BME280;33364;50.766;15.338;2024-01-15T11:21:25;92965.94;;;-2.47;85.26
47636;BME280;33364;50.766;15.338;2024-01-15T11:23:55;92958.72;;;-2.40;85.89
47636;BME280;33364;50.766;15.338;2024-01-15T11:28:55;92955.16;;;-2.29;86.18
47636;BME280;33364;50.766;15.338;2024-01-15T11:33:54;92949.16;;;-2.39;85.93
47636;BME280;33364;50.766;15.338;2024-01-15T11:42:00;92946.03;;;-2.51;86.34
47636;BME280;33364;50.766;15.338;2024-01-15T11:44:27;92941.41;;;-2.49;85.37
47636;BME280;33364;50.766;15.338;2024-01-15T11:47:07;92947.84;;;-2.47;86.77
47636;BME280;33364;50.766;15.338;2024-01-15T11:52:22;92949.41;;;-2.46;85.81
47636;BME280;33364;50.766;15.338;2024-01-15T11:54:55;92941.66;;;-2.41;85.72
47636;BME280;33364;50.766;15.338;2024-01-15T11:57:51;92943.78;;;-2.33;85.94
47636;BME280;33364;50.766;15.338;2024-01-15T12:00:18;92936.75;;;-2.32;85.68
47636;BME280;33364;50.766;15.338;2024-01-15T12:02:49;92931.09;;;-2.29;85.38
47636;BME280;33364;50.766;15.338;2024-01-15T12:05:16;92931.56;;;-2.42;84.93
47636;BME280;33364;50.766;15.338;2024-01-15T12:07:43;92922.81;;;-2.36;85.38
47636;BME280;33364;50.766;15.338;2024-01-15T12:10:20;92924.81;;;-2.53;85.48
47636;BME280;33364;50.766;15.338;2024-01-15T12:13:11;92931.56;;;-2.47;86.83
47636;BME280;33364;50.766;15.338;2024-01-15T12:15:38;92919.19;;;-2.40;86.66
47636;BME280;33364;50.766;15.338;2024-01-15T12:18:08;92919.66;;;-2.48;86.10
47636;BME280;33364;50.766;15.338;2024-01-15T12:20:35;92925.88;;;-2.60;85.42
47636;BME280;33364;50.766;15.338;2024-01-15T12:23:02;92925.13;;;-2.45;85.14
47636;BME280;33364;50.766;15.338;2024-01-15T12:25:32;92932.09;;;-2.50;85.77
47636;BME280;33364;50.766;15.338;2024-01-15T12:27:59;92920.75;;;-2.39;85.24
47636;BME280;33364;50.766;15.338;2024-01-15T12:30:26;92916.63;;;-2.35;86.32
47636;BME280;33364;50.766;15.338;2024-01-15T12:32:53;92921.78;;;-2.40;86.32
47636;BME280;33364;50.766;15.338;2024-01-15T12:35:19;92922.03;;;-2.37;86.07
47636;BME280;33364;50.766;15.338;2024-01-15T12:37:44;92917.13;;;-2.43;85.74
47636;BME280;33364;50.766;15.338;2024-01-15T12:40:13;92917.16;;;-2.33;85.83
47636;BME280;33364;50.766;15.338;2024-01-15T12:42:43;92916.63;;;-2.30;86.39
47636;BME280;33364;50.766;15.338;2024-01-15T12:45:11;92918.97;;;-2.19;86.64
47636;BME280;33364;50.766;15.338;2024-01-15T12:47:38;92914.56;;;-2.28;86.37
47636;BME280;33364;50.766;15.338;2024-01-15T12:50:08;92925.91;;;-2.34;85.83
47636;BME280;33364;50.766;15.338;2024-01-15T12:52:35;92926.72;;;-2.24;86.25
47636;BME280;33364;50.766;15.338;2024-01-15T12:55:07;92927.97;;;-2.31;85.66
47636;BME280;33364;50.766;15.338;2024-01-15T12:57:34;92921.56;;;-2.19;86.53
47636;BME280;33364;50.766;15.338;2024-01-15T13:00:02;92928.50;;;-2.44;85.65
47636;BME280;33364;50.766;15.338;2024-01-15T13:02:28;92925.91;;;-2.44;85.99